sensor_id;sensor_type;location;lat;lon;timestamp;P1;durP1;ratioP1;P2;durP2;ratioP2
26042;SDS011;13818;52.156;5.382;2023-08-24T00:00:18;4.35;;;2.38;;
26042;SDS011;13818;52.156;5.382;2023-08-24T00:02:44;5.07;;;2.35;;
26042;SDS011;13818;52.156;5.382;2023-08-24T00:05:11;3.33;;;2.28;;
26042;SDS011;13818;52.156;5.382;2023-08-24T00:07:38;8.50;;;2.63;;
26042;SDS011;13818;52.156;5.382;2023-08-24T00:10:06;3.13;;;2.05;;
26042;SDS011;13818;52.156;5.382;2023-08-24T00:12:33;8.18;;;3.10;;
26042;SDS011;13818;52.156;5.382;2023-08-24T00:15:00;4.18;;;2.45;;
26042;SDS011;13818;52.156;5.382;2023-08-24T00:17:29;4.15;;;2.08;;
26042;SDS011;13818;52.156;5.382;2023-08-24T00:19:55;4.95;;;2.20;;
26042;SDS011;13818;52.156;5.382;2023-08-24T00:22:21;5.15;;;2.28;;
26042;SDS011;13818;52.156;5.382;2023-08-24T00:24:48;4.28;;;2.15;;
26042;SDS011;13818;52.156;5.382;2023-08-24T00:27:14;7.03;;;2.78;;
26042;SDS011;13818;52.156;5.382;2023-08-24T00:29:41;4.75;;;2.35;;
26042;SDS011;13818;52.156;5.382;2023-08-24T00:32:07;5.82;;;2.67;;
26042;SDS011;13818;52.156;5.382;2023-08-24T00:34:35;5.38;;;2.53;;
26042;SDS011;13818;52.156;5.382;2023-08-24T00:37:01;4.75;;;2.30;;
26042;SDS011;13818;52.156;5.382;2023-08-24T00:39:28;9.65;;;2.88;;
26042;SDS011;13818;52.156;5.382;2023-08-24T00:41:54;5.32;;;3.05;;
26042;SDS011;13818;52.156;5.382;2023-08-24T00:44:21;7.13;;;2.95;;
26042;SDS011;13818;52.156;5.382;2023-08-24T00:46:47;4.45;;;2.30;;
26042;SDS011;13818;52.156;5.382;2023-08-24T00:49:13;4.60;;;2.72;;
26042;SDS011;13818;52.156;5.382;2023-08-24T00:51:42;9.13;;;2.83;;
26042;SDS011;13818;52.156;5.382;2023-08-24T00:54:08;4.18;;;2.50;;
26042;SDS011;13818;52.156;5.382;2023-08-24T00:56:35;5.93;;;2.95;;
26042;SDS011;13818;52.156;5.382;2023-08-24T00:59:01;5.45;;;2.80;;
26042;SDS011;13818;52.156;5.382;2023-08-24T01:01:28;9.45;;;3.30;;
26042;SDS011;13818;52.156;5.382;2023-08-24T01:03:54;9.15;;;3.92;;
26042;SDS011;13818;52.156;5.382;2023-08-24T01:06:21;6.13;;;2.80;;
26042;SDS011;13818;52.156;5.382;2023-08-24T01:08:48;7.65;;;3.05;;
26042;SDS011;13818;52.156;5.382;2023-08-24T01:11:18;5.28;;;3.10;;
26042;SDS011;13818;52.156;5.382;2023-08-24T01:13:58;5.40;;;3.05;;
26042;SDS011;13818;52.156;5.382;2023-08-24T01:16:31;4.45;;;2.83;;
26042;SDS011;13818;52.156;5.382;2023-08-24T01:19:05;7.53;;;3.13;;
26042;SDS011;13818;52.156;5.382;2023-08-24T01:21:38;7.47;;;2.88;;
26042;SDS011;13818;52.156;5.382;2023-08-24T01:24:09;5.53;;;2.58;;
26042;SDS011;13818;52.156;5.382;2023-08-24T01:26:41;6.03;;;3.03;;
26042;SDS011;13818;52.156;5.382;2023-08-24T01:29:08;8.38;;;3.10;;
26042;SDS011;13818;52.156;5.382;2023-08-24T01:31:35;6.32;;;2.85;;
26042;SDS011;13818;52.156;5.382;2023-08-24T01:34:02;7.15;;;3.55;;
26042;SDS011;13818;52.156;5.382;2023-08-24T01:36:29;4.93;;;2.85;;
26042;SDS011;13818;52.156;5.382;2023-08-24T01:38:58;8.40;;;3.25;;
26042;SDS011;13818;52.156;5.382;2023-08-24T01:41:31;5.45;;;3.28;;
26042;SDS011;13818;52.156;5.382;2023-08-24T01:44:05;7.70;;;3.08;;
26042;SDS011;13818;52.156;5.382;2023-08-24T01:46:34;9.20;;;3.55;;
26042;SDS011;13818;52.156;5.382;2023-08-24T01:49:02;5.30;;;2.40;;
26042;SDS011;13818;52.156;5.382;2023-08-24T01:51:32;8.23;;;3.47;;
26042;SDS011;13818;52.156;5.382;2023-08-24T01:54:00;8.50;;;3.47;;
26042;SDS011;13818;52.156;5.382;2023-08-24T01:56:28;4.90;;;2.55;;
26042;SDS011;13818;52.156;5.382;2023-08-24T01:58:55;7.38;;;3.38;;
26042;SDS011;13818;52.156;5.382;2023-08-24T02:01:23;6.47;;;2.92;;
26042;SDS011;13818;52.156;5.382;2023-08-24T02:03:49;7.90;;;3.00;;
26042;SDS011;13818;52.156;5.382;2023-08-24T02:06:16;5.18;;;2.83;;
26042;SDS011;13818;52.156;5.382;2023-08-24T02:08:42;5.47;;;2.88;;
26042;SDS011;13818;52.156;5.382;2023-08-24T02:11:09;6.88;;;2.97;;
26042;SDS011;13818;52.156;5.382;2023-08-24T02:13:36;4.80;;;2.90;;
26042;SDS011;13818;52.156;5.382;2023-08-24T02:16:03;5.70;;;3.08;;
26042;SDS011;13818;52.156;5.382;2023-08-24T02:18:31;6.72;;;3.10;;
26042;SDS011;13818;52.156;5.382;2023-08-24T02:20:58;7.97;;;3.25;;
26042;SDS011;13818;52.156;5.382;2023-08-24T02:23:24;6.57;;;3.65;;
26042;SDS011;13818;52.156;5.382;2023-08-24T02:25:50;6.57;;;3.55;;
26042;SDS011;13818;52.156;5.382;2023-08-24T02:28:17;7.05;;;3.40;;
26042;SDS011;13818;52.156;5.382;2023-08-24T02:30:43;8.45;;;3.30;;
26042;SDS011;13818;52.156;5.382;2023-08-24T02:33:10;5.40;;;2.92;;
26042;SDS011;13818;52.156;5.382;2023-08-24T02:35:38;7.45;;;3.55;;
26042;SDS011;13818;52.156;5.382;2023-08-24T02:38:04;7.78;;;3.30;;
26042;SDS011;13818;52.156;5.382;2023-08-24T02:40:30;6.50;;;3.38;;
26042;SDS011;13818;52.156;5.382;2023-08-24T02:42:57;6.43;;;3.55;;
26042;SDS011;13818;52.156;5.382;2023-08-24T02:45:23;7.03;;;4.18;;
26042;SDS011;13818;52.156;5.382;2023-08-24T02:47:50;12.07;;;4.25;;
26042;SDS011;13818;52.156;5.382;2023-08-24T02:50:16;6.25;;;3.33;;
26042;SDS011;13818;52.156;5.382;2023-08-24T02:52:44;8.25;;;3.92;;
26042;SDS011;13818;52.156;5.382;2023-08-24T02:55:10;7.07;;;3.97;;
26042;SDS011;13818;52.156;5.382;2023-08-24T02:57:37;8.77;;;3.42;;
26042;SDS011;13818;52.156;5.382;2023-08-24T03:00:04;9.00;;;4.00;;
26042;SDS011;13818;52.156;5.382;2023-08-24T03:02:32;7.03;;;3.72;;
26042;SDS011;13818;52.156;5.382;2023-08-24T03:04:59;6.38;;;3.70;;
26042;SDS011;13818;52.156;5.382;2023-08-24T03:07:25;7.75;;;3.17;;
26042;SDS011;13818;52.156;5.382;2023-08-24T03:09:53;8.02;;;4.20;;
26042;SDS011;13818;52.156;5.382;2023-08-24T03:12:20;6.50;;;4.07;;
26042;SDS011;13818;52.156;5.382;2023-08-24T03:14:46;6.63;;;3.97;;
26042;SDS011;13818;52.156;5.382;2023-08-24T03:17:13;6.90;;;3.85;;
26042;SDS011;13818;52.156;5.382;2023-08-24T03:19:39;7.07;;;3.63;;
26042;SDS011;13818;52.156;5.382;2023-08-24T03:22:06;7.03;;;3.80;;
26042;SDS011;13818;52.156;5.382;2023-08-24T03:24:32;10.32;;;4.28;;
26042;SDS011;13818;52.156;5.382;2023-08-24T03:27:00;6.35;;;3.70;;
26042;SDS011;13818;52.156;5.382;2023-08-24T03:29:27;12.88;;;3.85;;
26042;SDS011;13818;52.156;5.382;2023-08-24T03:31:53;6.60;;;3.70;;
26042;SDS011;13818;52.156;5.382;2023-08-24T03:34:19;9.20;;;4.13;;
26042;SDS011;13818;52.156;5.382;2023-08-24T03:36:46;8.13;;;4.50;;
26042;SDS011;13818;52.156;5.382;2023-08-24T03:39:13;8.82;;;4.38;;
26042;SDS011;13818;52.156;5.382;2023-08-24T03:41:40;7.80;;;4.15;;
26042;SDS011;13818;52.156;5.382;2023-08-24T03:44:08;8.95;;;4.82;;
26042;SDS011;13818;52.156;5.382;2023-08-24T03:46:34;7.63;;;4.22;;
26042;SDS011;13818;52.156;5.382;2023-08-24T03:49:01;9.82;;;4.28;;
26042;SDS011;13818;52.156;5.382;2023-08-24T03:51:27;7.60;;;4.18;;
26042;SDS011;13818;52.156;5.382;2023-08-24T03:53:54;12.32;;;4.28;;
26042;SDS011;13818;52.156;5.382;2023-08-24T03:56:20;8.20;;;3.60;;
26042;SDS011;13818;52.156;5.382;2023-08-24T03:58:46;7.18;;;4.07;;
26042;SDS011;13818;52.156;5.382;2023-08-24T04:01:15;12.65;;;4.28;;
26042;SDS011;13818;52.156;5.382;2023-08-24T04:03:42;9.40;;;4.07;;
26042;SDS011;13818;52.156;5.382;2023-08-24T04:06:08;10.77;;;4.82;;
26042;SDS011;13818;52.156;5.382;2023-08-24T04:08:35;10.13;;;5.15;;
26042;SDS011;13818;52.156;5.382;2023-08-24T04:11:01;7.97;;;4.22;;
26042;SDS011;13818;52.156;5.382;2023-08-24T04:13:28;6.70;;;4.05;;
26042;SDS011;13818;52.156;5.382;2023-08-24T04:15:54;9.07;;;4.25;;
26042;SDS011;13818;52.156;5.382;2023-08-24T04:18:22;9.38;;;4.35;;
26042;SDS011;13818;52.156;5.382;2023-08-24T04:20:50;9.73;;;4.43;;
26042;SDS011;13818;52.156;5.382;2023-08-24T04:23:22;11.77;;;4.72;;
26042;SDS011;13818;52.156;5.382;2023-08-24T04:25:50;8.75;;;4.25;;
26042;SDS011;13818;52.156;5.382;2023-08-24T04:28:17;9.85;;;5.10;;
26042;SDS011;13818;52.156;5.382;2023-08-24T04:30:48;11.75;;;4.88;;
26042;SDS011;13818;52.156;5.382;2023-08-24T04:33:15;8.73;;;4.32;;
26042;SDS011;13818;52.156;5.382;2023-08-24T04:35:43;7.32;;;4.18;;
26042;SDS011;13818;52.156;5.382;2023-08-24T04:38:11;9.05;;;4.78;;
26042;SDS011;13818;52.156;5.382;2023-08-24T04:40:48;9.00;;;4.22;;
26042;SDS011;13818;52.156;5.382;2023-08-24T04:43:16;7.68;;;4.25;;
26042;SDS011;13818;52.156;5.382;2023-08-24T04:45:45;12.73;;;4.80;;
26042;SDS011;13818;52.156;5.382;2023-08-24T04:48:12;7.25;;;4.28;;
26042;SDS011;13818;52.156;5.382;2023-08-24T04:50:38;9.15;;;4.68;;
26042;SDS011;13818;52.156;5.382;2023-08-24T04:53:06;8.55;;;3.80;;
26042;SDS011;13818;52.156;5.382;2023-08-24T04:55:32;6.97;;;4.05;;
26042;SDS011;13818;52.156;5.382;2023-08-24T04:57:59;9.77;;;4.32;;
26042;SDS011;13818;52.156;5.382;2023-08-24T05:00:25;7.10;;;4.20;;
26042;SDS011;13818;52.156;5.382;2023-08-24T05:02:52;6.68;;;3.97;;
26042;SDS011;13818;52.156;5.382;2023-08-24T05:05:18;6.30;;;4.20;;
26042;SDS011;13818;52.156;5.382;2023-08-24T05:07:45;11.35;;;4.93;;
26042;SDS011;13818;52.156;5.382;2023-08-24T05:10:13;8.25;;;4.47;;
26042;SDS011;13818;52.156;5.382;2023-08-24T05:12:39;8.30;;;4.07;;
26042;SDS011;13818;52.156;5.382;2023-08-24T05:15:06;5.95;;;3.65;;
26042;SDS011;13818;52.156;5.382;2023-08-24T05:17:33;5.97;;;3.58;;
26042;SDS011;13818;52.156;5.382;2023-08-24T05:19:59;8.88;;;4.57;;
26042;SDS011;13818;52.156;5.382;2023-08-24T05:22:26;7.13;;;3.88;;
26042;SDS011;13818;52.156;5.382;2023-08-24T05:24:52;8.05;;;3.67;;
26042;SDS011;13818;52.156;5.382;2023-08-24T05:27:20;6.13;;;3.55;;
26042;SDS011;13818;52.156;5.382;2023-08-24T05:29:47;6.40;;;3.50;;
26042;SDS011;13818;52.156;5.382;2023-08-24T05:32:13;6.07;;;3.90;;
26042;SDS011;13818;52.156;5.382;2023-08-24T05:34:40;7.38;;;3.97;;
26042;SDS011;13818;52.156;5.382;2023-08-24T05:37:06;11.20;;;4.47;;
26042;SDS011;13818;52.156;5.382;2023-08-24T05:39:32;6.03;;;3.40;;
26042;SDS011;13818;52.156;5.382;2023-08-24T05:41:59;6.65;;;3.38;;
26042;SDS011;13818;52.156;5.382;2023-08-24T05:44:27;6.30;;;3.63;;
26042;SDS011;13818;52.156;5.382;2023-08-24T05:46:53;7.05;;;3.00;;
26042;SDS011;13818;52.156;5.382;2023-08-24T05:49:19;6.88;;;3.33;;
26042;SDS011;13818;52.156;5.382;2023-08-24T05:51:49;5.32;;;3.25;;
26042;SDS011;13818;52.156;5.382;2023-08-24T05:54:16;9.93;;;3.80;;
26042;SDS011;13818;52.156;5.382;2023-08-24T05:56:43;7.60;;;3.40;;
26042;SDS011;13818;52.156;5.382;2023-08-24T05:59:10;5.00;;;3.33;;
26042;SDS011;13818;52.156;5.382;2023-08-24T06:01:37;4.47;;;3.05;;
26042;SDS011;13818;52.156;5.382;2023-08-24T06:04:04;4.80;;;3.38;;
26042;SDS011;13818;52.156;5.382;2023-08-24T06:06:31;6.15;;;2.95;;
26042;SDS011;13818;52.156;5.382;2023-08-24T06:08:58;5.80;;;2.97;;
26042;SDS011;13818;52.156;5.382;2023-08-24T06:11:24;6.18;;;3.97;;
26042;SDS011;13818;52.156;5.382;2023-08-24T06:13:50;5.50;;;3.40;;
26042;SDS011;13818;52.156;5.382;2023-08-24T06:18:46;7.32;;;3.38;;
26042;SDS011;13818;52.156;5.382;2023-08-24T06:21:14;5.18;;;3.40;;
26042;SDS011;13818;52.156;5.382;2023-08-24T06:23:41;7.32;;;4.00;;
26042;SDS011;13818;52.156;5.382;2023-08-24T06:26:07;6.05;;;3.80;;
26042;SDS011;13818;52.156;5.382;2023-08-24T06:28:34;5.18;;;3.03;;
26042;SDS011;13818;52.156;5.382;2023-08-24T06:31:00;3.95;;;2.60;;
26042;SDS011;13818;52.156;5.382;2023-08-24T06:33:27;6.82;;;3.28;;
26042;SDS011;13818;52.156;5.382;2023-08-24T06:38:22;5.90;;;3.33;;
26042;SDS011;13818;52.156;5.382;2023-08-24T06:40:49;4.50;;;3.15;;
26042;SDS011;13818;52.156;5.382;2023-08-24T06:43:15;6.25;;;3.40;;
26042;SDS011;13818;52.156;5.382;2023-08-24T06:45:42;5.00;;;2.88;;
26042;SDS011;13818;52.156;5.382;2023-08-24T06:50:36;8.27;;;3.42;;
26042;SDS011;13818;52.156;5.382;2023-08-24T06:53:04;5.50;;;3.10;;
26042;SDS011;13818;52.156;5.382;2023-08-24T06:55:30;6.45;;;2.72;;
26042;SDS011;13818;52.156;5.382;2023-08-24T06:57:57;8.38;;;3.08;;
26042;SDS011;13818;52.156;5.382;2023-08-24T07:00:23;7.00;;;3.55;;
26042;SDS011;13818;52.156;5.382;2023-08-24T07:02:50;5.43;;;3.60;;
26042;SDS011;13818;52.156;5.382;2023-08-24T07:05:17;8.00;;;3.50;;
26042;SDS011;13818;52.156;5.382;2023-08-24T07:07:44;10.73;;;3.90;;
26042;SDS011;13818;52.156;5.382;2023-08-24T07:10:12;7.68;;;4.05;;
26042;SDS011;13818;52.156;5.382;2023-08-24T07:12:38;6.60;;;4.38;;
26042;SDS011;13818;52.156;5.382;2023-08-24T07:15:06;8.80;;;4.10;;
26042;SDS011;13818;52.156;5.382;2023-08-24T07:17:33;5.85;;;3.08;;
26042;SDS011;13818;52.156;5.382;2023-08-24T07:19:59;7.28;;;4.10;;
26042;SDS011;13818;52.156;5.382;2023-08-24T07:22:26;6.88;;;4.25;;
26042;SDS011;13818;52.156;5.382;2023-08-24T07:24:52;7.68;;;3.90;;
26042;SDS011;13818;52.156;5.382;2023-08-24T07:27:20;6.55;;;4.10;;
26042;SDS011;13818;52.156;5.382;2023-08-24T07:29:46;9.02;;;5.03;;
26042;SDS011;13818;52.156;5.382;2023-08-24T07:32:13;6.55;;;4.60;;
26042;SDS011;13818;52.156;5.382;2023-08-24T07:34:39;6.15;;;4.15;;
26042;SDS011;13818;52.156;5.382;2023-08-24T07:37:06;6.93;;;4.65;;
26042;SDS011;13818;52.156;5.382;2023-08-24T07:39:32;6.90;;;4.13;;
26042;SDS011;13818;52.156;5.382;2023-08-24T07:41:59;7.28;;;4.53;;
26042;SDS011;13818;52.156;5.382;2023-08-24T07:44:27;8.52;;;4.32;;
26042;SDS011;13818;52.156;5.382;2023-08-24T07:46:54;6.15;;;4.00;;
26042;SDS011;13818;52.156;5.382;2023-08-24T07:49:20;10.93;;;5.78;;
26042;SDS011;13818;52.156;5.382;2023-08-24T07:51:47;11.80;;;4.88;;
26042;SDS011;13818;52.156;5.382;2023-08-24T07:54:13;8.82;;;4.78;;
26042;SDS011;13818;52.156;5.382;2023-08-24T07:56:39;8.52;;;4.90;;
26042;SDS011;13818;52.156;5.382;2023-08-24T07:59:06;10.07;;;6.03;;
26042;SDS011;13818;52.156;5.382;2023-08-24T08:01:34;7.35;;;4.53;;
26042;SDS011;13818;52.156;5.382;2023-08-24T08:06:26;9.27;;;4.90;;
26042;SDS011;13818;52.156;5.382;2023-08-24T08:08:53;8.27;;;4.80;;
26042;SDS011;13818;52.156;5.382;2023-08-24T08:11:19;7.57;;;4.75;;
26042;SDS011;13818;52.156;5.382;2023-08-24T08:13:46;7.68;;;4.47;;
26042;SDS011;13818;52.156;5.382;2023-08-24T08:16:13;7.38;;;4.13;;
26042;SDS011;13818;52.156;5.382;2023-08-24T08:18:41;9.05;;;4.25;;
26042;SDS011;13818;52.156;5.382;2023-08-24T08:23:37;8.85;;;5.38;;
26042;SDS011;13818;52.156;5.382;2023-08-24T08:26:04;6.28;;;4.82;;
26042;SDS011;13818;52.156;5.382;2023-08-24T08:28:31;8.98;;;5.10;;
26042;SDS011;13818;52.156;5.382;2023-08-24T08:30:59;11.65;;;4.75;;
26042;SDS011;13818;52.156;5.382;2023-08-24T08:33:26;6.50;;;4.65;;
26042;SDS011;13818;52.156;5.382;2023-08-24T08:35:54;7.65;;;4.80;;
26042;SDS011;13818;52.156;5.382;2023-08-24T08:40:50;10.05;;;5.18;;
26042;SDS011;13818;52.156;5.382;2023-08-24T08:43:19;10.15;;;5.03;;
26042;SDS011;13818;52.156;5.382;2023-08-24T08:45:47;7.07;;;5.25;;
26042;SDS011;13818;52.156;5.382;2023-08-24T08:48:15;9.98;;;5.32;;
26042;SDS011;13818;52.156;5.382;2023-08-24T08:50:41;8.43;;;4.95;;
26042;SDS011;13818;52.156;5.382;2023-08-24T08:53:09;6.25;;;4.50;;
26042;SDS011;13818;52.156;5.382;2023-08-24T08:58:02;8.98;;;4.78;;
26042;SDS011;13818;52.156;5.382;2023-08-24T09:00:29;7.88;;;5.78;;
26042;SDS011;13818;52.156;5.382;2023-08-24T09:02:56;6.93;;;4.25;;
26042;SDS011;13818;52.156;5.382;2023-08-24T09:05:24;8.35;;;4.90;;
26042;SDS011;13818;52.156;5.382;2023-08-24T09:07:51;9.02;;;4.55;;
26042;SDS011;13818;52.156;5.382;2023-08-24T09:10:22;7.35;;;4.68;;
26042;SDS011;13818;52.156;5.382;2023-08-24T09:12:49;8.43;;;5.30;;
26042;SDS011;13818;52.156;5.382;2023-08-24T09:15:22;7.72;;;4.85;;
26042;SDS011;13818;52.156;5.382;2023-08-24T09:17:50;10.75;;;5.30;;
26042;SDS011;13818;52.156;5.382;2023-08-24T09:20:16;9.32;;;5.25;;
26042;SDS011;13818;52.156;5.382;2023-08-24T09:22:43;7.28;;;5.28;;
26042;SDS011;13818;52.156;5.382;2023-08-24T09:25:10;10.38;;;5.57;;
26042;SDS011;13818;52.156;5.382;2023-08-24T09:27:38;7.97;;;4.35;;
26042;SDS011;13818;52.156;5.382;2023-08-24T09:32:32;9.77;;;3.88;;
26042;SDS011;13818;52.156;5.382;2023-08-24T09:35:01;8.18;;;4.93;;
26042;SDS011;13818;52.156;5.382;2023-08-24T09:37:31;13.20;;;4.82;;
26042;SDS011;13818;52.156;5.382;2023-08-24T09:40:00;10.70;;;5.45;;
26042;SDS011;13818;52.156;5.382;2023-08-24T09:42:34;7.18;;;3.55;;
26042;SDS011;13818;52.156;5.382;2023-08-24T09:45:05;7.30;;;4.55;;
26042;SDS011;13818;52.156;5.382;2023-08-24T09:47:34;8.50;;;4.93;;
26042;SDS011;13818;52.156;5.382;2023-08-24T09:50:01;9.35;;;5.45;;
26042;SDS011;13818;52.156;5.382;2023-08-24T09:52:29;8.95;;;4.47;;
26042;SDS011;13818;52.156;5.382;2023-08-24T09:54:57;8.73;;;5.43;;
26042;SDS011;13818;52.156;5.382;2023-08-24T09:57:29;8.20;;;4.65;;
26042;SDS011;13818;52.156;5.382;2023-08-24T09:59:58;10.30;;;4.82;;
26042;SDS011;13818;52.156;5.382;2023-08-24T10:02:25;7.80;;;4.65;;
26042;SDS011;13818;52.156;5.382;2023-08-24T10:04:57;6.47;;;4.50;;
26042;SDS011;13818;52.156;5.382;2023-08-24T10:09:55;8.98;;;5.53;;
26042;SDS011;13818;52.156;5.382;2023-08-24T10:12:24;9.52;;;5.57;;
26042;SDS011;13818;52.156;5.382;2023-08-24T10:14:56;11.70;;;5.40;;
26042;SDS011;13818;52.156;5.382;2023-08-24T10:17:26;9.57;;;5.05;;
26042;SDS011;13818;52.156;5.382;2023-08-24T10:19:52;8.45;;;5.13;;
26042;SDS011;13818;52.156;5.382;2023-08-24T10:22:21;10.60;;;5.35;;
26042;SDS011;13818;52.156;5.382;2023-08-24T10:24:48;8.23;;;4.95;;
26042;SDS011;13818;52.156;5.382;2023-08-24T10:27:17;9.35;;;4.30;;
26042;SDS011;13818;52.156;5.382;2023-08-24T10:29:44;7.60;;;4.43;;
26042;SDS011;13818;52.156;5.382;2023-08-24T10:32:12;7.45;;;4.70;;
26042;SDS011;13818;52.156;5.382;2023-08-24T10:34:40;7.43;;;4.60;;
26042;SDS011;13818;52.156;5.382;2023-08-24T10:37:07;7.75;;;4.40;;
26042;SDS011;13818;52.156;5.382;2023-08-24T10:39:34;9.27;;;5.72;;
26042;SDS011;13818;52.156;5.382;2023-08-24T10:42:03;9.57;;;5.60;;
26042;SDS011;13818;52.156;5.382;2023-08-24T10:44:33;10.52;;;5.45;;
26042;SDS011;13818;52.156;5.382;2023-08-24T10:47:07;9.88;;;5.93;;
26042;SDS011;13818;52.156;5.382;2023-08-24T10:49:39;10.75;;;5.97;;
26042;SDS011;13818;52.156;5.382;2023-08-24T10:52:19;9.73;;;6.50;;
26042;SDS011;13818;52.156;5.382;2023-08-24T10:54:46;10.75;;;6.97;;
26042;SDS011;13818;52.156;5.382;2023-08-24T10:57:18;8.85;;;6.03;;
26042;SDS011;13818;52.156;5.382;2023-08-24T10:59:45;10.07;;;6.05;;
26042;SDS011;13818;52.156;5.382;2023-08-24T11:02:25;11.75;;;6.43;;
26042;SDS011;13818;52.156;5.382;2023-08-24T11:05:05;8.63;;;5.78;;
26042;SDS011;13818;52.156;5.382;2023-08-24T11:07:47;14.38;;;7.72;;
26042;SDS011;13818;52.156;5.382;2023-08-24T11:10:18;10.05;;;5.72;;
26042;SDS011;13818;52.156;5.382;2023-08-24T11:13:04;7.80;;;5.70;;
26042;SDS011;13818;52.156;5.382;2023-08-24T11:15:31;8.20;;;5.72;;
26042;SDS011;13818;52.156;5.382;2023-08-24T11:18:19;10.73;;;6.45;;
26042;SDS011;13818;52.156;5.382;2023-08-24T11:20:51;7.97;;;5.97;;
26042;SDS011;13818;52.156;5.382;2023-08-24T11:23:18;13.27;;;6.28;;
26042;SDS011;13818;52.156;5.382;2023-08-24T11:25:45;9.80;;;5.80;;
26042;SDS011;13818;52.156;5.382;2023-08-24T11:28:16;10.85;;;7.53;;
26042;SDS011;13818;52.156;5.382;2023-08-24T11:30:43;9.85;;;6.97;;
26042;SDS011;13818;52.156;5.382;2023-08-24T11:33:11;11.30;;;6.95;;
26042;SDS011;13818;52.156;5.382;2023-08-24T11:35:40;11.70;;;6.55;;
26042;SDS011;13818;52.156;5.382;2023-08-24T11:38:08;11.20;;;7.00;;
26042;SDS011;13818;52.156;5.382;2023-08-24T11:40:35;13.05;;;6.60;;
26042;SDS011;13818;52.156;5.382;2023-08-24T11:43:02;10.63;;;6.07;;
26042;SDS011;13818;52.156;5.382;2023-08-24T11:45:29;10.93;;;6.47;;
26042;SDS011;13818;52.156;5.382;2023-08-24T11:50:24;13.45;;;7.10;;
26042;SDS011;13818;52.156;5.382;2023-08-24T11:52:52;13.68;;;6.72;;
26042;SDS011;13818;52.156;5.382;2023-08-24T11:55:20;10.43;;;6.72;;
26042;SDS011;13818;52.156;5.382;2023-08-24T11:57:47;15.75;;;7.18;;
26042;SDS011;13818;52.156;5.382;2023-08-24T12:00:13;10.48;;;6.85;;
26042;SDS011;13818;52.156;5.382;2023-08-24T12:02:41;9.32;;;6.07;;
26042;SDS011;13818;52.156;5.382;2023-08-24T12:05:11;12.13;;;6.90;;
26042;SDS011;13818;52.156;5.382;2023-08-24T12:07:46;11.13;;;7.25;;
26042;SDS011;13818;52.156;5.382;2023-08-24T12:10:14;10.05;;;6.10;;
26042;SDS011;13818;52.156;5.382;2023-08-24T12:12:41;10.45;;;6.93;;
26042;SDS011;13818;52.156;5.382;2023-08-24T12:15:07;13.48;;;6.80;;
26042;SDS011;13818;52.156;5.382;2023-08-24T12:17:44;11.98;;;5.63;;
26042;SDS011;13818;52.156;5.382;2023-08-24T12:20:16;13.77;;;6.65;;
26042;SDS011;13818;52.156;5.382;2023-08-24T12:22:43;10.38;;;7.32;;
26042;SDS011;13818;52.156;5.382;2023-08-24T12:25:10;9.73;;;6.20;;
26042;SDS011;13818;52.156;5.382;2023-08-24T12:27:38;9.57;;;6.55;;
26042;SDS011;13818;52.156;5.382;2023-08-24T12:32:41;9.57;;;5.95;;
26042;SDS011;13818;52.156;5.382;2023-08-24T12:35:09;11.38;;;7.47;;
26042;SDS011;13818;52.156;5.382;2023-08-24T12:37:35;10.85;;;6.95;;
26042;SDS011;13818;52.156;5.382;2023-08-24T12:40:02;13.75;;;7.53;;
26042;SDS011;13818;52.156;5.382;2023-08-24T12:42:29;12.85;;;8.07;;
26042;SDS011;13818;52.156;5.382;2023-08-24T12:44:57;22.55;;;8.77;;
26042;SDS011;13818;52.156;5.382;2023-08-24T12:49:50;17.20;;;7.13;;
26042;SDS011;13818;52.156;5.382;2023-08-24T12:52:17;11.45;;;7.78;;
26042;SDS011;13818;52.156;5.382;2023-08-24T12:54:44;14.88;;;8.10;;
26042;SDS011;13818;52.156;5.382;2023-08-24T12:57:10;13.65;;;7.05;;
26042;SDS011;13818;52.156;5.382;2023-08-24T12:59:36;8.90;;;6.05;;
26042;SDS011;13818;52.156;5.382;2023-08-24T13:02:04;12.85;;;8.57;;
26042;SDS011;13818;52.156;5.382;2023-08-24T13:04:32;14.30;;;8.77;;
26042;SDS011;13818;52.156;5.382;2023-08-24T13:06:58;13.95;;;7.95;;
26042;SDS011;13818;52.156;5.382;2023-08-24T13:09:25;14.38;;;9.25;;
26042;SDS011;13818;52.156;5.382;2023-08-24T13:11:52;10.65;;;7.80;;
26042;SDS011;13818;52.156;5.382;2023-08-24T13:14:18;17.27;;;8.57;;
26042;SDS011;13818;52.156;5.382;2023-08-24T13:16:45;12.82;;;7.75;;
26042;SDS011;13818;52.156;5.382;2023-08-24T13:21:41;12.85;;;7.03;;
26042;SDS011;13818;52.156;5.382;2023-08-24T13:24:07;13.95;;;7.68;;
26042;SDS011;13818;52.156;5.382;2023-08-24T13:26:34;11.98;;;6.60;;
26042;SDS011;13818;52.156;5.382;2023-08-24T13:29:00;9.95;;;7.60;;
26042;SDS011;13818;52.156;5.382;2023-08-24T13:31:27;12.32;;;7.35;;
26042;SDS011;13818;52.156;5.382;2023-08-24T13:36:22;15.82;;;7.97;;
26042;SDS011;13818;52.156;5.382;2023-08-24T13:41:15;12.57;;;6.50;;
26042;SDS011;13818;52.156;5.382;2023-08-24T13:43:42;10.73;;;6.97;;
26042;SDS011;13818;52.156;5.382;2023-08-24T13:46:09;10.25;;;6.93;;
26042;SDS011;13818;52.156;5.382;2023-08-24T13:48:35;15.50;;;8.35;;
26042;SDS011;13818;52.156;5.382;2023-08-24T13:51:02;14.30;;;8.82;;
26042;SDS011;13818;52.156;5.382;2023-08-24T13:53:30;10.48;;;8.18;;
26042;SDS011;13818;52.156;5.382;2023-08-24T13:58:22;12.23;;;8.48;;
26042;SDS011;13818;52.156;5.382;2023-08-24T14:00:54;18.15;;;8.63;;
26042;SDS011;13818;52.156;5.382;2023-08-24T14:03:21;15.50;;;9.80;;
26042;SDS011;13818;52.156;5.382;2023-08-24T14:05:47;13.27;;;9.18;;
26042;SDS011;13818;52.156;5.382;2023-08-24T14:08:15;12.02;;;9.07;;
26042;SDS011;13818;52.156;5.382;2023-08-24T14:10:42;11.15;;;8.23;;
26042;SDS011;13818;52.156;5.382;2023-08-24T14:15:35;15.20;;;9.20;;
26042;SDS011;13818;52.156;5.382;2023-08-24T14:18:01;12.32;;;8.55;;
26042;SDS011;13818;52.156;5.382;2023-08-24T14:20:28;14.10;;;8.10;;
26042;SDS011;13818;52.156;5.382;2023-08-24T14:22:55;12.40;;;8.23;;
26042;SDS011;13818;52.156;5.382;2023-08-24T14:25:21;12.43;;;8.82;;
26042;SDS011;13818;52.156;5.382;2023-08-24T14:27:49;15.02;;;9.57;;
26042;SDS011;13818;52.156;5.382;2023-08-24T14:32:42;15.00;;;9.13;;
26042;SDS011;13818;52.156;5.382;2023-08-24T14:35:08;15.63;;;9.88;;
26042;SDS011;13818;52.156;5.382;2023-08-24T14:37:34;15.93;;;9.50;;
26042;SDS011;13818;52.156;5.382;2023-08-24T14:40:03;16.25;;;10.90;;
26042;SDS011;13818;52.156;5.382;2023-08-24T14:44:58;12.30;;;8.32;;
26042;SDS011;13818;52.156;5.382;2023-08-24T14:49:51;17.88;;;9.43;;
26042;SDS011;13818;52.156;5.382;2023-08-24T14:52:17;15.10;;;9.75;;
26042;SDS011;13818;52.156;5.382;2023-08-24T14:54:44;14.38;;;9.18;;
26042;SDS011;13818;52.156;5.382;2023-08-24T14:57:11;17.15;;;9.15;;
26042;SDS011;13818;52.156;5.382;2023-08-24T14:59:37;12.55;;;9.13;;
26042;SDS011;13818;52.156;5.382;2023-08-24T15:02:05;12.98;;;8.38;;
26042;SDS011;13818;52.156;5.382;2023-08-24T15:04:31;11.48;;;8.23;;
26042;SDS011;13818;52.156;5.382;2023-08-24T15:06:58;10.63;;;7.93;;
26042;SDS011;13818;52.156;5.382;2023-08-24T15:09:24;14.15;;;7.72;;
26042;SDS011;13818;52.156;5.382;2023-08-24T15:11:51;15.25;;;7.95;;
26042;SDS011;13818;52.156;5.382;2023-08-24T15:14:17;10.38;;;7.35;;
26042;SDS011;13818;52.156;5.382;2023-08-24T15:16:44;12.35;;;10.05;;
26042;SDS011;13818;52.156;5.382;2023-08-24T15:19:11;14.10;;;8.07;;
26042;SDS011;13818;52.156;5.382;2023-08-24T15:24:04;8.82;;;6.63;;
26042;SDS011;13818;52.156;5.382;2023-08-24T15:26:31;9.98;;;7.25;;
26042;SDS011;13818;52.156;5.382;2023-08-24T15:29:07;13.80;;;8.15;;
26042;SDS011;13818;52.156;5.382;2023-08-24T15:31:34;11.90;;;8.52;;
26042;SDS011;13818;52.156;5.382;2023-08-24T15:34:01;14.20;;;8.27;;
26042;SDS011;13818;52.156;5.382;2023-08-24T15:36:28;13.45;;;7.72;;